sensor_id;sensor_type;location;lat;lon;timestamp;pressure;altitude;pressure_sealevel;temperature
10058;BMP180;5068;51.286;7.518;2024-01-30T00:01:24;100501.00;;;5.40
10058;BMP180;5068;51.286;7.518;2024-01-30T00:02:56;100504.00;;;5.40
10058;BMP180;5068;51.286;7.518;2024-01-30T00:04:30;100506.00;;;5.40
10058;BMP180;5068;51.286;7.518;2024-01-30T00:06:03;100513.00;;;5.40
10058;BMP180;5068;51.286;7.518;2024-01-30T00:07:37;100503.00;;;5.40
10058;BMP180;5068;51.286;7.518;2024-01-30T00:09:09;100509.00;;;5.40
10058;BMP180;5068;51.286;7.518;2024-01-30T00:10:43;100508.00;;;5.40
10058;BMP180;5068;51.286;7.518;2024-01-30T00:12:16;100507.00;;;5.40
10058;BMP180;5068;51.286;7.518;2024-01-30T00:13:48;100510.00;;;5.40
10058;BMP180;5068;51.286;7.518;2024-01-30T00:15:21;100506.00;;;5.40
10058;BMP180;5068;51.286;7.518;2024-01-30T00:16:56;100516.00;;;5.40
10058;BMP180;5068;51.286;7.518;2024-01-30T00:18:28;100511.00;;;5.40
10058;BMP180;5068;51.286;7.518;2024-01-30T00:20:01;100509.00;;;5.40
10058;BMP180;5068;51.286;7.518;2024-01-30T00:21:37;100511.00;;;5.40
10058;BMP180;5068;51.286;7.518;2024-01-30T00:23:10;100508.00;;;5.40
10058;BMP180;5068;51.286;7.518;2024-01-30T00:24:42;100511.00;;;5.40
10058;BMP180;5068;51.286;7.518;2024-01-30T00:26:16;100512.00;;;5.40
10058;BMP180;5068;51.286;7.518;2024-01-30T00:27:48;100501.00;;;5.30
10058;BMP180;5068;51.286;7.518;2024-01-30T00:29:21;100501.00;;;5.30
10058;BMP180;5068;51.286;7.518;2024-01-30T00:30:55;100508.00;;;5.30
10058;BMP180;5068;51.286;7.518;2024-01-30T00:32:29;100506.00;;;5.30
10058;BMP180;5068;51.286;7.518;2024-01-30T00:34:01;100497.00;;;5.30
10058;BMP180;5068;51.286;7.518;2024-01-30T00:35:36;100487.00;;;5.30
10058;BMP180;5068;51.286;7.518;2024-01-30T00:37:08;100496.00;;;5.30
10058;BMP180;5068;51.286;7.518;2024-01-30T00:38:41;100501.00;;;5.30
10058;BMP180;5068;51.286;7.518;2024-01-30T00:40:14;100488.00;;;5.20
10058;BMP180;5068;51.286;7.518;2024-01-30T00:41:48;100501.00;;;5.20
10058;BMP180;5068;51.286;7.518;2024-01-30T00:43:20;100511.00;;;5.20
10058;BMP180;5068;51.286;7.518;2024-01-30T00:44:53;100496.00;;;5.20
10058;BMP180;5068;51.286;7.518;2024-01-30T00:46:26;100502.00;;;5.20
10058;BMP180;5068;51.286;7.518;2024-01-30T00:48:00;100501.00;;;5.20
10058;BMP180;5068;51.286;7.518;2024-01-30T00:49:34;100500.00;;;5.20
10058;BMP180;5068;51.286;7.518;2024-01-30T00:51:07;100501.00;;;5.20
10058;BMP180;5068;51.286;7.518;2024-01-30T00:52:39;100507.00;;;5.20
10058;BMP180;5068;51.286;7.518;2024-01-30T00:54:13;100497.00;;;5.20
10058;BMP180;5068;51.286;7.518;2024-01-30T00:55:46;100487.00;;;5.20
10058;BMP180;5068;51.286;7.518;2024-01-30T00:57:19;100490.00;;;5.20
10058;BMP180;5068;51.286;7.518;2024-01-30T00:58:52;100492.00;;;5.20
10058;BMP180;5068;51.286;7.518;2024-01-30T01:00:24;100496.00;;;5.20
10058;BMP180;5068;51.286;7.518;2024-01-30T01:02:01;100491.00;;;5.20
10058;BMP180;5068;51.286;7.518;2024-01-30T01:03:35;100491.00;;;5.20
10058;BMP180;5068;51.286;7.518;2024-01-30T01:05:09;100491.00;;;5.20
10058;BMP180;5068;51.286;7.518;2024-01-30T01:06:41;100500.00;;;5.20
10058;BMP180;5068;51.286;7.518;2024-01-30T01:08:16;100486.00;;;5.10
10058;BMP180;5068;51.286;7.518;2024-01-30T01:09:50;100491.00;;;5.20
10058;BMP180;5068;51.286;7.518;2024-01-30T01:11:22;100490.00;;;5.20
10058;BMP180;5068;51.286;7.518;2024-01-30T01:12:55;100484.00;;;5.10
10058;BMP180;5068;51.286;7.518;2024-01-30T01:14:27;100492.00;;;5.10
10058;BMP180;5068;51.286;7.518;2024-01-30T01:16:01;100491.00;;;5.10
10058;BMP180;5068;51.286;7.518;2024-01-30T01:17:33;100496.00;;;5.10
10058;BMP180;5068;51.286;7.518;2024-01-30T01:19:07;100501.00;;;5.10
10058;BMP180;5068;51.286;7.518;2024-01-30T01:20:41;100489.00;;;5.10
10058;BMP180;5068;51.286;7.518;2024-01-30T01:22:13;100490.00;;;5.10
10058;BMP180;5068;51.286;7.518;2024-01-30T01:23:46;100490.00;;;5.00
10058;BMP180;5068;51.286;7.518;2024-01-30T01:25:19;100491.00;;;5.00
10058;BMP180;5068;51.286;7.518;2024-01-30T01:26:52;100478.00;;;5.00
10058;BMP180;5068;51.286;7.518;2024-01-30T01:28:24;100493.00;;;5.00
10058;BMP180;5068;51.286;7.518;2024-01-30T01:29:57;100484.00;;;5.00
10058;BMP180;5068;51.286;7.518;2024-01-30T01:31:30;100492.00;;;5.00
10058;BMP180;5068;51.286;7.518;2024-01-30T01:33:03;100489.00;;;5.00
10058;BMP180;5068;51.286;7.518;2024-01-30T01:34:37;100492.00;;;5.00
10058;BMP180;5068;51.286;7.518;2024-01-30T01:36:10;100490.00;;;4.90
10058;BMP180;5068;51.286;7.518;2024-01-30T01:37:42;100490.00;;;4.90
10058;BMP180;5068;51.286;7.518;2024-01-30T01:39:15;100489.00;;;5.00
10058;BMP180;5068;51.286;7.518;2024-01-30T01:40:48;100489.00;;;5.00
10058;BMP180;5068;51.286;7.518;2024-01-30T01:42:21;100495.00;;;5.00
10058;BMP180;5068;51.286;7.518;2024-01-30T01:43:54;100487.00;;;5.00
10058;BMP180;5068;51.286;7.518;2024-01-30T01:45:28;100488.00;;;5.00
10058;BMP180;5068;51.286;7.518;2024-01-30T01:47:00;100489.00;;;5.00
10058;BMP180;5068;51.286;7.518;2024-01-30T01:48:34;100480.00;;;5.00
10058;BMP180;5068;51.286;7.518;2024-01-30T01:50:08;100481.00;;;4.90
10058;BMP180;5068;51.286;7.518;2024-01-30T01:51:43;100490.00;;;4.90
10058;BMP180;5068;51.286;7.518;2024-01-30T01:53:17;100485.00;;;4.90
10058;BMP180;5068;51.286;7.518;2024-01-30T01:54:50;100487.00;;;4.90
10058;BMP180;5068;51.286;7.518;2024-01-30T01:56:24;100482.00;;;4.90
10058;BMP180;5068;51.286;7.518;2024-01-30T01:57:57;100485.00;;;4.90
10058;BMP180;5068;51.286;7.518;2024-01-30T01:59:30;100486.00;;;4.90
10058;BMP180;5068;51.286;7.518;2024-01-30T02:01:04;100484.00;;;4.90
10058;BMP180;5068;51.286;7.518;2024-01-30T02:02:38;100474.00;;;4.90
10058;BMP180;5068;51.286;7.518;2024-01-30T02:04:12;100473.00;;;4.80
10058;BMP180;5068;51.286;7.518;2024-01-30T02:05:46;100469.00;;;4.80
10058;BMP180;5068;51.286;7.518;2024-01-30T02:07:20;100471.00;;;4.80
10058;BMP180;5068;51.286;7.518;2024-01-30T02:08:52;100471.00;;;4.80
10058;BMP180;5068;51.286;7.518;2024-01-30T02:10:26;100482.00;;;4.80
10058;BMP180;5068;51.286;7.518;2024-01-30T02:11:58;100465.00;;;4.80
10058;BMP180;5068;51.286;7.518;2024-01-30T02:13:32;100468.00;;;4.80
10058;BMP180;5068;51.286;7.518;2024-01-30T02:15:05;100474.00;;;4.80
10058;BMP180;5068;51.286;7.518;2024-01-30T02:16:39;100461.00;;;4.80
10058;BMP180;5068;51.286;7.518;2024-01-30T02:18:12;100464.00;;;4.80
10058;BMP180;5068;51.286;7.518;2024-01-30T02:19:45;100459.00;;;4.80
10058;BMP180;5068;51.286;7.518;2024-01-30T02:21:19;100459.00;;;4.80
10058;BMP180;5068;51.286;7.518;2024-01-30T02:22:54;100461.00;;;4.80
10058;BMP180;5068;51.286;7.518;2024-01-30T02:24:28;100465.00;;;4.80
10058;BMP180;5068;51.286;7.518;2024-01-30T02:26:01;100446.00;;;4.80
10058;BMP180;5068;51.286;7.518;2024-01-30T02:27:33;100459.00;;;4.80
10058;BMP180;5068;51.286;7.518;2024-01-30T02:29:06;100465.00;;;4.80
10058;BMP180;5068;51.286;7.518;2024-01-30T02:30:39;100454.00;;;4.80
10058;BMP180;5068;51.286;7.518;2024-01-30T02:32:12;100453.00;;;4.80
10058;BMP180;5068;51.286;7.518;2024-01-30T02:33:44;100456.00;;;4.80
10058;BMP180;5068;51.286;7.518;2024-01-30T02:35:17;100453.00;;;4.80
10058;BMP180;5068;51.286;7.518;2024-01-30T02:36:51;100451.00;;;4.80
10058;BMP180;5068;51.286;7.518;2024-01-30T02:38:24;100454.00;;;4.80
10058;BMP180;5068;51.286;7.518;2024-01-30T02:39:58;100449.00;;;4.80
10058;BMP180;5068;51.286;7.518;2024-01-30T02:41:31;100452.00;;;4.80
10058;BMP180;5068;51.286;7.518;2024-01-30T02:43:04;100444.00;;;4.80
10058;BMP180;5068;51.286;7.518;2024-01-30T02:44:38;100444.00;;;4.80
10058;BMP180;5068;51.286;7.518;2024-01-30T02:46:10;100451.00;;;4.80
10058;BMP180;5068;51.286;7.518;2024-01-30T02:47:43;100448.00;;;4.80
10058;BMP180;5068;51.286;7.518;2024-01-30T02:49:15;100444.00;;;4.80
10058;BMP180;5068;51.286;7.518;2024-01-30T02:50:49;100442.00;;;4.80
10058;BMP180;5068;51.286;7.518;2024-01-30T02:52:22;100440.00;;;4.80
10058;BMP180;5068;51.286;7.518;2024-01-30T02:53:56;100441.00;;;4.80
10058;BMP180;5068;51.286;7.518;2024-01-30T02:55:29;100447.00;;;4.80
10058;BMP180;5068;51.286;7.518;2024-01-30T02:57:03;100445.00;;;4.80
10058;BMP180;5068;51.286;7.518;2024-01-30T02:58:35;100444.00;;;4.80
10058;BMP180;5068;51.286;7.518;2024-01-30T03:00:10;100452.00;;;4.80
10058;BMP180;5068;51.286;7.518;2024-01-30T03:01:43;100444.00;;;4.80
10058;BMP180;5068;51.286;7.518;2024-01-30T03:03:16;100441.00;;;4.90
10058;BMP180;5068;51.286;7.518;2024-01-30T03:04:49;100436.00;;;4.90
10058;BMP180;5068;51.286;7.518;2024-01-30T03:06:21;100430.00;;;4.90
10058;BMP180;5068;51.286;7.518;2024-01-30T03:07:56;100438.00;;;4.90
10058;BMP180;5068;51.286;7.518;2024-01-30T03:09:29;100434.00;;;4.90
10058;BMP180;5068;51.286;7.518;2024-01-30T03:11:02;100429.00;;;4.90
10058;BMP180;5068;51.286;7.518;2024-01-30T03:12:34;100435.00;;;4.90
10058;BMP180;5068;51.286;7.518;2024-01-30T03:14:08;100435.00;;;4.90
10058;BMP180;5068;51.286;7.518;2024-01-30T03:15:42;100419.00;;;4.90
10058;BMP180;5068;51.286;7.518;2024-01-30T03:17:16;100425.00;;;4.90
10058;BMP180;5068;51.286;7.518;2024-01-30T03:18:48;100423.00;;;4.90
10058;BMP180;5068;51.286;7.518;2024-01-30T03:20:21;100423.00;;;4.90
10058;BMP180;5068;51.286;7.518;2024-01-30T03:21:53;100432.00;;;4.80
10058;BMP180;5068;51.286;7.518;2024-01-30T03:23:28;100424.00;;;4.80
10058;BMP180;5068;51.286;7.518;2024-01-30T03:25:01;100412.00;;;4.80
10058;BMP180;5068;51.286;7.518;2024-01-30T03:26:34;100408.00;;;4.80
10058;BMP180;5068;51.286;7.518;2024-01-30T03:28:06;100415.00;;;4.80
10058;BMP180;5068;51.286;7.518;2024-01-30T03:29:39;100416.00;;;4.80
10058;BMP180;5068;51.286;7.518;2024-01-30T03:31:15;100413.00;;;4.80
10058;BMP180;5068;51.286;7.518;2024-01-30T03:32:49;100411.00;;;4.80
10058;BMP180;5068;51.286;7.518;2024-01-30T03:34:22;100405.00;;;4.90
10058;BMP180;5068;51.286;7.518;2024-01-30T03:35:55;100399.00;;;4.80
10058;BMP180;5068;51.286;7.518;2024-01-30T03:37:28;100408.00;;;4.90
10058;BMP180;5068;51.286;7.518;2024-01-30T03:39:02;100402.00;;;4.90
10058;BMP180;5068;51.286;7.518;2024-01-30T03:40:35;100397.00;;;4.90
10058;BMP180;5068;51.286;7.518;2024-01-30T03:42:07;100394.00;;;4.90
10058;BMP180;5068;51.286;7.518;2024-01-30T03:43:41;100402.00;;;4.90
10058;BMP180;5068;51.286;7.518;2024-01-30T03:45:13;100393.00;;;4.90
10058;BMP180;5068;51.286;7.518;2024-01-30T03:46:46;100395.00;;;4.90
10058;BMP180;5068;51.286;7.518;2024-01-30T03:48:20;100391.00;;;4.90
10058;BMP180;5068;51.286;7.518;2024-01-30T03:49:54;100392.00;;;4.90
10058;BMP180;5068;51.286;7.518;2024-01-30T03:51:27;100394.00;;;4.90
10058;BMP180;5068;51.286;7.518;2024-01-30T03:52:59;100385.00;;;4.90
10058;BMP180;5068;51.286;7.518;2024-01-30T03:54:34;100393.00;;;4.90
10058;BMP180;5068;51.286;7.518;2024-01-30T03:56:06;100396.00;;;4.90
10058;BMP180;5068;51.286;7.518;2024-01-30T03:57:39;100389.00;;;4.90
10058;BMP180;5068;51.286;7.518;2024-01-30T03:59:13;100391.00;;;4.90
10058;BMP180;5068;51.286;7.518;2024-01-30T04:00:45;100394.00;;;4.90
10058;BMP180;5068;51.286;7.518;2024-01-30T04:02:18;100392.00;;;4.90
10058;BMP180;5068;51.286;7.518;2024-01-30T04:03:51;100389.00;;;4.90
10058;BMP180;5068;51.286;7.518;2024-01-30T04:05:24;100389.00;;;4.90
10058;BMP180;5068;51.286;7.518;2024-01-30T04:06:57;100390.00;;;5.00
10058;BMP180;5068;51.286;7.518;2024-01-30T04:08:29;100387.00;;;4.90
10058;BMP180;5068;51.286;7.518;2024-01-30T04:10:06;100398.00;;;5.00
10058;BMP180;5068;51.286;7.518;2024-01-30T04:11:38;100386.00;;;4.90
10058;BMP180;5068;51.286;7.518;2024-01-30T04:13:11;100394.00;;;4.90
10058;BMP180;5068;51.286;7.518;2024-01-30T04:14:43;100380.00;;;5.00
10058;BMP180;5068;51.286;7.518;2024-01-30T04:16:20;100383.00;;;5.00
10058;BMP180;5068;51.286;7.518;2024-01-30T04:17:53;100398.00;;;5.00
10058;BMP180;5068;51.286;7.518;2024-01-30T04:19:27;100386.00;;;5.00
10058;BMP180;5068;51.286;7.518;2024-01-30T04:20:59;100372.00;;;5.00
10058;BMP180;5068;51.286;7.518;2024-01-30T04:22:32;100386.00;;;5.00
10058;BMP180;5068;51.286;7.518;2024-01-30T04:24:05;100377.00;;;5.00
10058;BMP180;5068;51.286;7.518;2024-01-30T04:25:40;100381.00;;;5.00
10058;BMP180;5068;51.286;7.518;2024-01-30T04:27:12;100384.00;;;5.00
10058;BMP180;5068;51.286;7.518;2024-01-30T04:28:46;100376.00;;;5.00
10058;BMP180;5068;51.286;7.518;2024-01-30T04:30:18;100384.00;;;5.00
10058;BMP180;5068;51.286;7.518;2024-01-30T04:31:51;100377.00;;;5.00
10058;BMP180;5068;51.286;7.518;2024-01-30T04:33:24;100377.00;;;5.00
10058;BMP180;5068;51.286;7.518;2024-01-30T04:34:57;100383.00;;;5.00
10058;BMP180;5068;51.286;7.518;2024-01-30T04:36:31;100375.00;;;5.00
10058;BMP180;5068;51.286;7.518;2024-01-30T04:38:04;100372.00;;;5.00
10058;BMP180;5068;51.286;7.518;2024-01-30T04:39:36;100363.00;;;5.00
10058;BMP180;5068;51.286;7.518;2024-01-30T04:41:11;100375.00;;;5.00
10058;BMP180;5068;51.286;7.518;2024-01-30T04:42:43;100376.00;;;5.00
10058;BMP180;5068;51.286;7.518;2024-01-30T04:44:17;100377.00;;;5.00
10058;BMP180;5068;51.286;7.518;2024-01-30T04:45:49;100374.00;;;5.00
10058;BMP180;5068;51.286;7.518;2024-01-30T04:47:23;100372.00;;;5.00
10058;BMP180;5068;51.286;7.518;2024-01-30T04:48:55;100364.00;;;5.00
10058;BMP180;5068;51.286;7.518;2024-01-30T04:50:28;100373.00;;;5.00
10058;BMP180;5068;51.286;7.518;2024-01-30T04:52:01;100373.00;;;5.00
10058;BMP180;5068;51.286;7.518;2024-01-30T04:53:34;100366.00;;;5.00
10058;BMP180;5068;51.286;7.518;2024-01-30T04:55:08;100374.00;;;5.00
10058;BMP180;5068;51.286;7.518;2024-01-30T04:56:41;100360.00;;;5.00
10058;BMP180;5068;51.286;7.518;2024-01-30T04:58:15;100369.00;;;5.10
10058;BMP180;5068;51.286;7.518;2024-01-30T04:59:47;100365.00;;;5.10
10058;BMP180;5068;51.286;7.518;2024-01-30T05:01:20;100366.00;;;5.10
10058;BMP180;5068;51.286;7.518;2024-01-30T05:02:54;100375.00;;;5.10
10058;BMP180;5068;51.286;7.518;2024-01-30T05:04:27;100369.00;;;5.10
10058;BMP180;5068;51.286;7.518;2024-01-30T05:06:00;100354.00;;;5.10
10058;BMP180;5068;51.286;7.518;2024-01-30T05:07:33;100360.00;;;5.10
10058;BMP180;5068;51.286;7.518;2024-01-30T05:09:06;100355.00;;;5.10
10058;BMP180;5068;51.286;7.518;2024-01-30T05:10:40;100358.00;;;5.10
10058;BMP180;5068;51.286;7.518;2024-01-30T05:12:14;100361.00;;;5.10
10058;BMP180;5068;51.286;7.518;2024-01-30T05:13:47;100355.00;;;5.10
10058;BMP180;5068;51.286;7.518;2024-01-30T05:15:20;100358.00;;;5.10
10058;BMP180;5068;51.286;7.518;2024-01-30T05:16:52;100367.00;;;5.10
10058;BMP180;5068;51.286;7.518;2024-01-30T05:18:25;100361.00;;;5.10
10058;BMP180;5068;51.286;7.518;2024-01-30T05:19:58;100362.00;;;5.10
10058;BMP180;5068;51.286;7.518;2024-01-30T05:21:31;100354.00;;;5.10
10058;BMP180;5068;51.286;7.518;2024-01-30T05:23:04;100361.00;;;5.10
10058;BMP180;5068;51.286;7.518;2024-01-30T05:24:37;100357.00;;;5.10
10058;BMP180;5068;51.286;7.518;2024-01-30T05:26:09;100356.00;;;5.10
10058;BMP180;5068;51.286;7.518;2024-01-30T05:27:44;100357.00;;;5.10
10058;BMP180;5068;51.286;7.518;2024-01-30T05:29:16;100357.00;;;5.10
10058;BMP180;5068;51.286;7.518;2024-01-30T05:30:49;100360.00;;;5.10
10058;BMP180;5068;51.286;7.518;2024-01-30T05:32:22;100361.00;;;5.10
10058;BMP180;5068;51.286;7.518;2024-01-30T05:33:55;100366.00;;;5.10
10058;BMP180;5068;51.286;7.518;2024-01-30T05:35:28;100367.00;;;5.10
10058;BMP180;5068;51.286;7.518;2024-01-30T05:37:01;100368.00;;;5.10
10058;BMP180;5068;51.286;7.518;2024-01-30T05:38:33;100366.00;;;5.10
10058;BMP180;5068;51.286;7.518;2024-01-30T05:40:08;100373.00;;;5.10
10058;BMP180;5068;51.286;7.518;2024-01-30T05:41:40;100381.00;;;5.10
10058;BMP180;5068;51.286;7.518;2024-01-30T05:43:15;100365.00;;;5.10
10058;BMP180;5068;51.286;7.518;2024-01-30T05:44:47;100365.00;;;5.10
10058;BMP180;5068;51.286;7.518;2024-01-30T05:46:21;100369.00;;;5.10
10058;BMP180;5068;51.286;7.518;2024-01-30T05:47:56;100360.00;;;5.10
10058;BMP180;5068;51.286;7.518;2024-01-30T05:49:30;100368.00;;;5.10
10058;BMP180;5068;51.286;7.518;2024-01-30T05:51:03;100359.00;;;5.10
10058;BMP180;5068;51.286;7.518;2024-01-30T05:52:37;100365.00;;;5.10
10058;BMP180;5068;51.286;7.518;2024-01-30T05:54:10;100357.00;;;5.10
10058;BMP180;5068;51.286;7.518;2024-01-30T05:55:45;100360.00;;;5.10
10058;BMP180;5068;51.286;7.518;2024-01-30T05:57:18;100358.00;;;5.10
10058;BMP180;5068;51.286;7.518;2024-01-30T05:58:52;100358.00;;;5.20
10058;BMP180;5068;51.286;7.518;2024-01-30T06:00:25;100361.00;;;5.20
10058;BMP180;5068;51.286;7.518;2024-01-30T06:01:57;100360.00;;;5.20
10058;BMP180;5068;51.286;7.518;2024-01-30T06:03:31;100356.00;;;5.20
10058;BMP180;5068;51.286;7.518;2024-01-30T06:05:05;100346.00;;;5.20
10058;BMP180;5068;51.286;7.518;2024-01-30T06:06:37;100345.00;;;5.20
10058;BMP180;5068;51.286;7.518;2024-01-30T06:08:10;100340.00;;;5.20
10058;BMP180;5068;51.286;7.518;2024-01-30T06:09:43;100342.00;;;5.20
10058;BMP180;5068;51.286;7.518;2024-01-30T06:11:16;100343.00;;;5.30
10058;BMP180;5068;51.286;7.518;2024-01-30T06:12:49;100353.00;;;5.30
10058;BMP180;5068;51.286;7.518;2024-01-30T06:14:24;100351.00;;;5.30
10058;BMP180;5068;51.286;7.518;2024-01-30T06:15:56;100355.00;;;5.30
10058;BMP180;5068;51.286;7.518;2024-01-30T06:17:29;100365.00;;;5.30
10058;BMP180;5068;51.286;7.518;2024-01-30T06:19:01;100346.00;;;5.20
10058;BMP180;5068;51.286;7.518;2024-01-30T06:20:35;100363.00;;;5.20
10058;BMP180;5068;51.286;7.518;2024-01-30T06:22:07;100362.00;;;5.20
10058;BMP180;5068;51.286;7.518;2024-01-30T06:23:41;100365.00;;;5.20
10058;BMP180;5068;51.286;7.518;2024-01-30T06:25:13;100368.00;;;5.30
10058;BMP180;5068;51.286;7.518;2024-01-30T06:26:46;100352.00;;;5.30
10058;BMP180;5068;51.286;7.518;2024-01-30T06:28:19;100357.00;;;5.30
10058;BMP180;5068;51.286;7.518;2024-01-30T06:29:53;100360.00;;;5.30
10058;BMP180;5068;51.286;7.518;2024-01-30T06:31:26;100357.00;;;5.30
10058;BMP180;5068;51.286;7.518;2024-01-30T06:32:59;100356.00;;;5.30
10058;BMP180;5068;51.286;7.518;2024-01-30T06:34:32;100355.00;;;5.30
10058;BMP180;5068;51.286;7.518;2024-01-30T06:36:05;100352.00;;;5.30
10058;BMP180;5068;51.286;7.518;2024-01-30T06:37:38;100357.00;;;5.40
10058;BMP180;5068;51.286;7.518;2024-01-30T06:39:11;100361.00;;;5.40
10058;BMP180;5068;51.286;7.518;2024-01-30T06:40:43;100349.00;;;5.30
10058;BMP180;5068;51.286;7.518;2024-01-30T06:42:16;100358.00;;;5.40
10058;BMP180;5068;51.286;7.518;2024-01-30T06:43:49;100353.00;;;5.40
10058;BMP180;5068;51.286;7.518;2024-01-30T06:45:24;100352.00;;;5.40
10058;BMP180;5068;51.286;7.518;2024-01-30T06:46:56;100356.00;;;5.40
10058;BMP180;5068;51.286;7.518;2024-01-30T06:48:29;100345.00;;;5.40
10058;BMP180;5068;51.286;7.518;2024-01-30T06:50:03;100357.00;;;5.40
10058;BMP180;5068;51.286;7.518;2024-01-30T06:51:35;100348.00;;;5.40
10058;BMP180;5068;51.286;7.518;2024-01-30T06:53:08;100359.00;;;5.40
10058;BMP180;5068;51.286;7.518;2024-01-30T06:54:41;100359.00;;;5.40
10058;BMP180;5068;51.286;7.518;2024-01-30T06:56:14;100358.00;;;5.40
10058;BMP180;5068;51.286;7.518;2024-01-30T06:57:46;100360.00;;;5.40
10058;BMP180;5068;51.286;7.518;2024-01-30T06:59:22;100354.00;;;5.40
10058;BMP180;5068;51.286;7.518;2024-01-30T07:00:56;100359.00;;;5.50
10058;BMP180;5068;51.286;7.518;2024-01-30T07:02:29;100356.00;;;5.50
10058;BMP180;5068;51.286;7.518;2024-01-30T07:04:03;100354.00;;;5.50
10058;BMP180;5068;51.286;7.518;2024-01-30T07:05:35;100360.00;;;5.50
10058;BMP180;5068;51.286;7.518;2024-01-30T07:07:08;100356.00;;;5.50
10058;BMP180;5068;51.286;7.518;2024-01-30T07:08:45;100352.00;;;5.50
10058;BMP180;5068;51.286;7.518;2024-01-30T07:10:18;100351.00;;;5.50
10058;BMP180;5068;51.286;7.518;2024-01-30T07:11:53;100362.00;;;5.50
10058;BMP180;5068;51.286;7.518;2024-01-30T07:13:25;100350.00;;;5.50
10058;BMP180;5068;51.286;7.518;2024-01-30T07:14:58;100354.00;;;5.50
10058;BMP180;5068;51.286;7.518;2024-01-30T07:16:33;100354.00;;;5.50
10058;BMP180;5068;51.286;7.518;2024-01-30T07:18:06;100362.00;;;5.50
10058;BMP180;5068;51.286;7.518;2024-01-30T07:19:39;100365.00;;;5.50
10058;BMP180;5068;51.286;7.518;2024-01-30T07:21:13;100363.00;;;5.50
10058;BMP180;5068;51.286;7.518;2024-01-30T07:22:47;100359.00;;;5.50
10058;BMP180;5068;51.286;7.518;2024-01-30T07:24:19;100356.00;;;5.50
10058;BMP180;5068;51.286;7.518;2024-01-30T07:25:52;100359.00;;;5.50
10058;BMP180;5068;51.286;7.518;2024-01-30T07:27:24;100351.00;;;5.50
10058;BMP180;5068;51.286;7.518;2024-01-30T07:28:57;100355.00;;;5.60
10058;BMP180;5068;51.286;7.518;2024-01-30T07:30:30;100359.00;;;5.60
10058;BMP180;5068;51.286;7.518;2024-01-30T07:32:05;100369.00;;;5.60
10058;BMP180;5068;51.286;7.518;2024-01-30T07:33:37;100364.00;;;5.60
10058;BMP180;5068;51.286;7.518;2024-01-30T07:35:10;100374.00;;;5.60
10058;BMP180;5068;51.286;7.518;2024-01-30T07:36:43;100371.00;;;5.60
10058;BMP180;5068;51.286;7.518;2024-01-30T07:38:16;100371.00;;;5.70
10058;BMP180;5068;51.286;7.518;2024-01-30T07:39:48;100368.00;;;5.70
10058;BMP180;5068;51.286;7.518;2024-01-30T07:41:22;100375.00;;;5.70
10058;BMP180;5068;51.286;7.518;2024-01-30T07:42:56;100368.00;;;5.70
10058;BMP180;5068;51.286;7.518;2024-01-30T07:44:29;100369.00;;;5.70
10058;BMP180;5068;51.286;7.518;2024-01-30T07:46:02;100362.00;;;5.70
10058;BMP180;5068;51.286;7.518;2024-01-30T07:47:36;100372.00;;;5.70
10058;BMP180;5068;51.286;7.518;2024-01-30T07:49:09;100371.00;;;5.80
10058;BMP180;5068;51.286;7.518;2024-01-30T07:50:42;100367.00;;;5.80
10058;BMP180;5068;51.286;7.518;2024-01-30T07:52:15;100375.00;;;5.80
10058;BMP180;5068;51.286;7.518;2024-01-30T07:53:48;100361.00;;;5.80
10058;BMP180;5068;51.286;7.518;2024-01-30T07:55:21;100369.00;;;5.80
10058;BMP180;5068;51.286;7.518;2024-01-30T07:56:56;100372.00;;;5.90
10058;BMP180;5068;51.286;7.518;2024-01-30T07:58:29;100371.00;;;5.90
10058;BMP180;5068;51.286;7.518;2024-01-30T08:00:01;100373.00;;;5.90
10058;BMP180;5068;51.286;7.518;2024-01-30T08:01:38;100367.00;;;6.00
10058;BMP180;5068;51.286;7.518;2024-01-30T08:03:12;100367.00;;;6.00
10058;BMP180;5068;51.286;7.518;2024-01-30T08:04:45;100375.00;;;6.00
10058;BMP180;5068;51.286;7.518;2024-01-30T08:06:21;100365.00;;;6.00
10058;BMP180;5068;51.286;7.518;2024-01-30T08:07:54;100379.00;;;6.10
10058;BMP180;5068;51.286;7.518;2024-01-30T08:09:26;100376.00;;;6.10
10058;BMP180;5068;51.286;7.518;2024-01-30T08:10:59;100377.00;;;6.10
10058;BMP180;5068;51.286;7.518;2024-01-30T08:12:32;100382.00;;;6.10
10058;BMP180;5068;51.286;7.518;2024-01-30T08:14:05;100392.00;;;6.10
10058;BMP180;5068;51.286;7.518;2024-01-30T08:15:37;100389.00;;;6.10
10058;BMP180;5068;51.286;7.518;2024-01-30T08:17:10;100385.00;;;6.20
10058;BMP180;5068;51.286;7.518;2024-01-30T08:18:45;100381.00;;;6.20
10058;BMP180;5068;51.286;7.518;2024-01-30T08:20:17;100396.00;;;6.20
10058;BMP180;5068;51.286;7.518;2024-01-30T08:21:52;100388.00;;;6.30
10058;BMP180;5068;51.286;7.518;2024-01-30T08:23:30;100386.00;;;6.30
10058;BMP180;5068;51.286;7.518;2024-01-30T08:25:04;100403.00;;;6.30
10058;BMP180;5068;51.286;7.518;2024-01-30T08:26:37;100397.00;;;6.40
10058;BMP180;5068;51.286;7.518;2024-01-30T08:28:10;100395.00;;;6.40
10058;BMP180;5068;51.286;7.518;2024-01-30T08:29:43;100395.00;;;6.40
10058;BMP180;5068;51.286;7.518;2024-01-30T08:31:16;100387.00;;;6.40
10058;BMP180;5068;51.286;7.518;2024-01-30T08:32:49;100377.00;;;6.50
10058;BMP180;5068;51.286;7.518;2024-01-30T08:34:24;100391.00;;;6.50
10058;BMP180;5068;51.286;7.518;2024-01-30T08:35:56;100385.00;;;6.60
10058;BMP180;5068;51.286;7.518;2024-01-30T08:37:29;100385.00;;;6.60
10058;BMP180;5068;51.286;7.518;2024-01-30T08:39:02;100383.00;;;6.60
10058;BMP180;5068;51.286;7.518;2024-01-30T08:40:37;100384.00;;;6.70
10058;BMP180;5068;51.286;7.518;2024-01-30T08:42:10;100387.00;;;6.70
10058;BMP180;5068;51.286;7.518;2024-01-30T08:43:43;100387.00;;;6.80
10058;BMP180;5068;51.286;7.518;2024-01-30T08:45:16;100379.00;;;6.80
10058;BMP180;5068;51.286;7.518;2024-01-30T08:46:50;100389.00;;;6.80
10058;BMP180;5068;51.286;7.518;2024-01-30T08:48:22;100383.00;;;6.90
10058;BMP180;5068;51.286;7.518;2024-01-30T08:49:58;100387.00;;;6.90
10058;BMP180;5068;51.286;7.518;2024-01-30T08:51:32;100379.00;;;7.00
10058;BMP180;5068;51.286;7.518;2024-01-30T08:53:06;100378.00;;;7.00
10058;BMP180;5068;51.286;7.518;2024-01-30T08:54:38;100380.00;;;7.10
10058;BMP180;5068;51.286;7.518;2024-01-30T08:56:12;100383.00;;;7.10
10058;BMP180;5068;51.286;7.518;2024-01-30T08:57:44;100386.00;;;7.20
10058;BMP180;5068;51.286;7.518;2024-01-30T08:59:17;100377.00;;;7.20
10058;BMP180;5068;51.286;7.518;2024-01-30T09:00:49;100380.00;;;7.20
10058;BMP180;5068;51.286;7.518;2024-01-30T09:02:24;100375.00;;;7.30
10058;BMP180;5068;51.286;7.518;2024-01-30T09:03:57;100385.00;;;7.30
10058;BMP180;5068;51.286;7.518;2024-01-30T09:05:31;100383.00;;;7.40